sensor_id;sensor_type;location;lat;lon;timestamp;P1;durP1;ratioP1;P2;durP2;ratioP2
37791;SDS011;29527;55.766;37.570;2023-03-31T00:00:24;7.05;;;4.50;;
37791;SDS011;29527;55.766;37.570;2023-03-31T00:02:50;5.43;;;4.28;;
37791;SDS011;29527;55.766;37.570;2023-03-31T00:05:18;5.13;;;4.47;;
37791;SDS011;29527;55.766;37.570;2023-03-31T00:07:45;4.95;;;4.18;;
37791;SDS011;29527;55.766;37.570;2023-03-31T00:10:12;6.85;;;4.57;;
37791;SDS011;29527;55.766;37.570;2023-03-31T00:12:38;5.53;;;4.68;;
37791;SDS011;29527;55.766;37.570;2023-03-31T00:15:04;7.13;;;4.88;;
37791;SDS011;29527;55.766;37.570;2023-03-31T00:17:30;6.07;;;4.63;;
37791;SDS011;29527;55.766;37.570;2023-03-31T00:19:57;7.35;;;4.68;;
37791;SDS011;29527;55.766;37.570;2023-03-31T00:22:25;7.50;;;5.15;;
37791;SDS011;29527;55.766;37.570;2023-03-31T00:24:52;6.60;;;4.85;;
37791;SDS011;29527;55.766;37.570;2023-03-31T00:27:17;9.38;;;4.97;;
37791;SDS011;29527;55.766;37.570;2023-03-31T00:29:43;7.00;;;5.07;;
37791;SDS011;29527;55.766;37.570;2023-03-31T00:32:09;5.35;;;4.57;;
37791;SDS011;29527;55.766;37.570;2023-03-31T00:34:35;5.72;;;4.50;;
37791;SDS011;29527;55.766;37.570;2023-03-31T00:37:02;8.20;;;5.00;;
37791;SDS011;29527;55.766;37.570;2023-03-31T00:39:28;6.63;;;4.60;;
37791;SDS011;29527;55.766;37.570;2023-03-31T00:41:57;5.60;;;4.45;;
37791;SDS011;29527;55.766;37.570;2023-03-31T00:44:23;6.45;;;4.40;;
37791;SDS011;29527;55.766;37.570;2023-03-31T00:46:56;6.07;;;4.40;;
37791;SDS011;29527;55.766;37.570;2023-03-31T00:52:01;5.22;;;4.55;;
37791;SDS011;29527;55.766;37.570;2023-03-31T00:54:31;6.70;;;4.57;;
37791;SDS011;29527;55.766;37.570;2023-03-31T00:56:59;7.78;;;4.78;;
37791;SDS011;29527;55.766;37.570;2023-03-31T00:59:28;5.70;;;4.13;;
37791;SDS011;29527;55.766;37.570;2023-03-31T01:01:58;5.15;;;4.40;;
37791;SDS011;29527;55.766;37.570;2023-03-31T01:04:28;5.10;;;4.50;;
37791;SDS011;29527;55.766;37.570;2023-03-31T01:06:59;4.75;;;4.28;;
37791;SDS011;29527;55.766;37.570;2023-03-31T01:09:33;5.10;;;4.45;;
37791;SDS011;29527;55.766;37.570;2023-03-31T01:12:00;8.10;;;4.45;;
37791;SDS011;29527;55.766;37.570;2023-03-31T01:14:29;4.82;;;4.05;;
37791;SDS011;29527;55.766;37.570;2023-03-31T01:16:55;5.45;;;4.07;;
37791;SDS011;29527;55.766;37.570;2023-03-31T01:19:41;5.28;;;3.95;;
37791;SDS011;29527;55.766;37.570;2023-03-31T01:22:22;4.15;;;3.75;;
37791;SDS011;29527;55.766;37.570;2023-03-31T01:33:06;6.63;;;3.78;;
37791;SDS011;29527;55.766;37.570;2023-03-31T01:36:08;6.95;;;3.35;;
37791;SDS011;29527;55.766;37.570;2023-03-31T01:41:28;4.82;;;3.08;;
37791;SDS011;29527;55.766;37.570;2023-03-31T01:44:30;3.25;;;2.72;;
37791;SDS011;29527;55.766;37.570;2023-03-31T01:47:10;4.28;;;2.63;;
37791;SDS011;29527;55.766;37.570;2023-03-31T01:49:46;4.25;;;3.03;;
37791;SDS011;29527;55.766;37.570;2023-03-31T01:52:25;3.70;;;2.92;;
37791;SDS011;29527;55.766;37.570;2023-03-31T01:55:02;6.75;;;2.95;;
37791;SDS011;29527;55.766;37.570;2023-03-31T01:57:41;4.95;;;3.08;;
37791;SDS011;29527;55.766;37.570;2023-03-31T02:00:18;5.45;;;2.85;;
37791;SDS011;29527;55.766;37.570;2023-03-31T02:02:54;3.08;;;2.78;;
37791;SDS011;29527;55.766;37.570;2023-03-31T02:05:25;4.25;;;2.90;;
37791;SDS011;29527;55.766;37.570;2023-03-31T02:10:28;3.72;;;2.97;;
37791;SDS011;29527;55.766;37.570;2023-03-31T02:12:56;3.67;;;3.20;;
37791;SDS011;29527;55.766;37.570;2023-03-31T02:15:25;5.28;;;3.40;;
37791;SDS011;29527;55.766;37.570;2023-03-31T02:17:57;4.78;;;3.70;;
37791;SDS011;29527;55.766;37.570;2023-03-31T02:20:24;3.75;;;3.10;;
37791;SDS011;29527;55.766;37.570;2023-03-31T02:22:53;4.22;;;3.60;;
37791;SDS011;29527;55.766;37.570;2023-03-31T02:25:21;4.63;;;3.58;;
37791;SDS011;29527;55.766;37.570;2023-03-31T02:27:54;3.85;;;3.13;;
37791;SDS011;29527;55.766;37.570;2023-03-31T02:30:25;3.42;;;3.08;;
37791;SDS011;29527;55.766;37.570;2023-03-31T02:33:00;4.53;;;2.78;;
37791;SDS011;29527;55.766;37.570;2023-03-31T02:35:28;4.60;;;2.88;;
37791;SDS011;29527;55.766;37.570;2023-03-31T02:37:54;8.38;;;3.00;;
37791;SDS011;29527;55.766;37.570;2023-03-31T02:40:22;3.85;;;2.80;;
37791;SDS011;29527;55.766;37.570;2023-03-31T02:42:51;3.33;;;2.78;;
37791;SDS011;29527;55.766;37.570;2023-03-31T02:48:02;3.70;;;3.13;;
37791;SDS011;29527;55.766;37.570;2023-03-31T02:50:31;3.20;;;2.80;;
37791;SDS011;29527;55.766;37.570;2023-03-31T02:56:18;3.67;;;3.30;;
37791;SDS011;29527;55.766;37.570;2023-03-31T03:07:02;4.03;;;3.17;;
37791;SDS011;29527;55.766;37.570;2023-03-31T03:09:53;3.65;;;3.28;;
37791;SDS011;29527;55.766;37.570;2023-03-31T03:18:10;4.22;;;3.22;;
37791;SDS011;29527;55.766;37.570;2023-03-31T03:20:37;4.30;;;3.55;;
37791;SDS011;29527;55.766;37.570;2023-03-31T03:23:06;4.32;;;3.50;;
37791;SDS011;29527;55.766;37.570;2023-03-31T03:25:32;6.10;;;3.90;;
37791;SDS011;29527;55.766;37.570;2023-03-31T03:27:58;6.72;;;4.18;;
37791;SDS011;29527;55.766;37.570;2023-03-31T03:30:23;7.03;;;3.80;;
37791;SDS011;29527;55.766;37.570;2023-03-31T03:32:49;4.78;;;3.75;;
37791;SDS011;29527;55.766;37.570;2023-03-31T03:35:15;4.95;;;3.70;;
37791;SDS011;29527;55.766;37.570;2023-03-31T03:37:40;8.20;;;3.88;;
37791;SDS011;29527;55.766;37.570;2023-03-31T03:40:06;4.50;;;3.85;;
37791;SDS011;29527;55.766;37.570;2023-03-31T03:42:33;4.35;;;3.90;;
37791;SDS011;29527;55.766;37.570;2023-03-31T03:44:59;4.30;;;3.90;;
37791;SDS011;29527;55.766;37.570;2023-03-31T03:47:26;4.18;;;3.70;;
37791;SDS011;29527;55.766;37.570;2023-03-31T03:49:51;4.60;;;3.90;;
37791;SDS011;29527;55.766;37.570;2023-03-31T03:52:17;5.82;;;4.45;;
37791;SDS011;29527;55.766;37.570;2023-03-31T03:54:42;4.47;;;3.92;;
37791;SDS011;29527;55.766;37.570;2023-03-31T03:57:08;6.15;;;3.60;;
37791;SDS011;29527;55.766;37.570;2023-03-31T03:59:33;5.57;;;4.20;;
37791;SDS011;29527;55.766;37.570;2023-03-31T04:01:59;6.20;;;4.35;;
37791;SDS011;29527;55.766;37.570;2023-03-31T04:04:24;7.05;;;4.53;;
37791;SDS011;29527;55.766;37.570;2023-03-31T04:06:50;5.78;;;3.90;;
37791;SDS011;29527;55.766;37.570;2023-03-31T04:09:15;4.95;;;3.97;;
37791;SDS011;29527;55.766;37.570;2023-03-31T04:11:41;7.13;;;3.95;;
37791;SDS011;29527;55.766;37.570;2023-03-31T04:14:06;10.25;;;4.25;;
37791;SDS011;29527;55.766;37.570;2023-03-31T04:16:32;6.35;;;4.13;;
37791;SDS011;29527;55.766;37.570;2023-03-31T04:18:58;5.55;;;3.95;;
37791;SDS011;29527;55.766;37.570;2023-03-31T04:21:28;5.13;;;4.53;;
37791;SDS011;29527;55.766;37.570;2023-03-31T04:23:54;6.13;;;4.18;;
37791;SDS011;29527;55.766;37.570;2023-03-31T04:26:26;5.78;;;4.20;;
37791;SDS011;29527;55.766;37.570;2023-03-31T04:29:03;5.72;;;4.38;;
37791;SDS011;29527;55.766;37.570;2023-03-31T04:31:30;10.45;;;4.15;;
37791;SDS011;29527;55.766;37.570;2023-03-31T04:33:55;7.20;;;4.72;;
37791;SDS011;29527;55.766;37.570;2023-03-31T04:36:26;5.60;;;4.00;;
37791;SDS011;29527;55.766;37.570;2023-03-31T04:38:55;7.07;;;4.40;;
37791;SDS011;29527;55.766;37.570;2023-03-31T04:41:26;4.75;;;3.83;;
37791;SDS011;29527;55.766;37.570;2023-03-31T04:43:52;5.88;;;4.15;;
37791;SDS011;29527;55.766;37.570;2023-03-31T04:46:19;5.15;;;4.10;;
37791;SDS011;29527;55.766;37.570;2023-03-31T04:48:44;8.77;;;4.68;;
37791;SDS011;29527;55.766;37.570;2023-03-31T04:51:10;6.57;;;4.05;;
37791;SDS011;29527;55.766;37.570;2023-03-31T04:53:39;6.60;;;4.18;;
37791;SDS011;29527;55.766;37.570;2023-03-31T04:56:05;5.95;;;4.00;;
37791;SDS011;29527;55.766;37.570;2023-03-31T04:58:31;4.05;;;3.38;;
37791;SDS011;29527;55.766;37.570;2023-03-31T05:00:57;4.28;;;3.42;;
37791;SDS011;29527;55.766;37.570;2023-03-31T05:03:22;5.95;;;3.60;;
37791;SDS011;29527;55.766;37.570;2023-03-31T05:05:48;3.55;;;2.45;;
37791;SDS011;29527;55.766;37.570;2023-03-31T05:08:13;5.18;;;3.60;;
37791;SDS011;29527;55.766;37.570;2023-03-31T05:10:39;5.07;;;3.72;;
37791;SDS011;29527;55.766;37.570;2023-03-31T05:13:04;6.13;;;3.42;;
37791;SDS011;29527;55.766;37.570;2023-03-31T05:15:30;6.07;;;3.80;;
37791;SDS011;29527;55.766;37.570;2023-03-31T05:17:56;6.07;;;3.70;;
37791;SDS011;29527;55.766;37.570;2023-03-31T05:20:22;4.93;;;3.85;;
37791;SDS011;29527;55.766;37.570;2023-03-31T05:22:48;5.82;;;4.00;;
37791;SDS011;29527;55.766;37.570;2023-03-31T05:25:14;4.93;;;4.00;;
37791;SDS011;29527;55.766;37.570;2023-03-31T05:27:42;6.95;;;4.55;;
37791;SDS011;29527;55.766;37.570;2023-03-31T05:30:10;10.60;;;4.32;;
37791;SDS011;29527;55.766;37.570;2023-03-31T05:32:35;6.60;;;4.22;;
37791;SDS011;29527;55.766;37.570;2023-03-31T05:35:01;7.43;;;3.38;;
37791;SDS011;29527;55.766;37.570;2023-03-31T05:37:26;6.32;;;4.32;;
37791;SDS011;29527;55.766;37.570;2023-03-31T05:39:52;6.65;;;4.55;;
37791;SDS011;29527;55.766;37.570;2023-03-31T05:42:18;5.63;;;4.35;;
37791;SDS011;29527;55.766;37.570;2023-03-31T05:44:44;8.90;;;4.78;;
37791;SDS011;29527;55.766;37.570;2023-03-31T05:47:10;9.10;;;4.63;;
37791;SDS011;29527;55.766;37.570;2023-03-31T05:49:35;7.13;;;4.70;;
37791;SDS011;29527;55.766;37.570;2023-03-31T05:52:02;7.03;;;4.53;;
37791;SDS011;29527;55.766;37.570;2023-03-31T05:54:28;6.82;;;4.82;;
37791;SDS011;29527;55.766;37.570;2023-03-31T05:56:54;7.70;;;6.05;;
37791;SDS011;29527;55.766;37.570;2023-03-31T05:59:19;13.20;;;5.50;;
37791;SDS011;29527;55.766;37.570;2023-03-31T06:01:45;10.20;;;5.13;;
37791;SDS011;29527;55.766;37.570;2023-03-31T06:04:11;6.82;;;5.03;;
37791;SDS011;29527;55.766;37.570;2023-03-31T06:06:36;8.18;;;5.25;;
37791;SDS011;29527;55.766;37.570;2023-03-31T06:09:02;7.78;;;5.00;;
37791;SDS011;29527;55.766;37.570;2023-03-31T06:11:29;7.55;;;5.38;;
37791;SDS011;29527;55.766;37.570;2023-03-31T06:13:55;8.45;;;5.32;;
37791;SDS011;29527;55.766;37.570;2023-03-31T06:16:21;7.13;;;5.28;;
37791;SDS011;29527;55.766;37.570;2023-03-31T06:18:46;8.25;;;5.32;;
37791;SDS011;29527;55.766;37.570;2023-03-31T06:21:12;10.02;;;4.95;;
37791;SDS011;29527;55.766;37.570;2023-03-31T06:23:43;10.05;;;5.45;;
37791;SDS011;29527;55.766;37.570;2023-03-31T06:26:13;10.77;;;5.05;;
37791;SDS011;29527;55.766;37.570;2023-03-31T06:28:41;9.32;;;5.43;;
37791;SDS011;29527;55.766;37.570;2023-03-31T06:31:14;8.45;;;5.32;;
37791;SDS011;29527;55.766;37.570;2023-03-31T06:33:41;10.57;;;4.82;;
37791;SDS011;29527;55.766;37.570;2023-03-31T06:36:07;10.02;;;5.97;;
37791;SDS011;29527;55.766;37.570;2023-03-31T06:38:34;9.20;;;5.72;;
37791;SDS011;29527;55.766;37.570;2023-03-31T06:41:01;8.85;;;6.60;;
37791;SDS011;29527;55.766;37.570;2023-03-31T06:43:27;11.40;;;5.78;;
37791;SDS011;29527;55.766;37.570;2023-03-31T06:45:53;6.57;;;5.78;;
37791;SDS011;29527;55.766;37.570;2023-03-31T06:48:18;12.40;;;5.45;;
37791;SDS011;29527;55.766;37.570;2023-03-31T06:50:44;9.30;;;5.93;;
37791;SDS011;29527;55.766;37.570;2023-03-31T06:53:09;7.70;;;6.07;;
37791;SDS011;29527;55.766;37.570;2023-03-31T06:55:36;7.72;;;5.25;;
37791;SDS011;29527;55.766;37.570;2023-03-31T06:58:02;9.57;;;5.32;;
37791;SDS011;29527;55.766;37.570;2023-03-31T07:00:28;8.52;;;5.22;;
37791;SDS011;29527;55.766;37.570;2023-03-31T07:02:54;12.07;;;5.50;;
37791;SDS011;29527;55.766;37.570;2023-03-31T07:05:20;8.02;;;5.32;;
37791;SDS011;29527;55.766;37.570;2023-03-31T07:07:54;10.80;;;5.40;;
37791;SDS011;29527;55.766;37.570;2023-03-31T07:10:21;8.20;;;5.70;;
37791;SDS011;29527;55.766;37.570;2023-03-31T07:12:48;8.70;;;5.95;;
37791;SDS011;29527;55.766;37.570;2023-03-31T07:15:14;8.52;;;5.50;;
37791;SDS011;29527;55.766;37.570;2023-03-31T07:17:40;8.63;;;5.50;;
37791;SDS011;29527;55.766;37.570;2023-03-31T07:20:09;11.20;;;5.40;;
37791;SDS011;29527;55.766;37.570;2023-03-31T07:22:44;13.05;;;5.57;;
37791;SDS011;29527;55.766;37.570;2023-03-31T07:25:12;7.43;;;5.47;;
37791;SDS011;29527;55.766;37.570;2023-03-31T07:27:39;7.03;;;5.40;;
37791;SDS011;29527;55.766;37.570;2023-03-31T07:30:06;8.10;;;4.95;;
37791;SDS011;29527;55.766;37.570;2023-03-31T07:32:33;5.90;;;4.88;;
37791;SDS011;29527;55.766;37.570;2023-03-31T07:34:59;8.05;;;5.25;;
37791;SDS011;29527;55.766;37.570;2023-03-31T07:37:25;13.05;;;6.43;;
37791;SDS011;29527;55.766;37.570;2023-03-31T07:39:50;8.00;;;5.72;;
37791;SDS011;29527;55.766;37.570;2023-03-31T07:42:16;12.00;;;5.95;;
37791;SDS011;29527;55.766;37.570;2023-03-31T07:44:41;6.30;;;5.43;;
37791;SDS011;29527;55.766;37.570;2023-03-31T07:47:07;12.77;;;5.95;;
37791;SDS011;29527;55.766;37.570;2023-03-31T07:49:32;11.43;;;6.28;;
37791;SDS011;29527;55.766;37.570;2023-03-31T07:51:58;13.55;;;6.40;;
37791;SDS011;29527;55.766;37.570;2023-03-31T07:54:24;15.05;;;6.20;;
37791;SDS011;29527;55.766;37.570;2023-03-31T07:56:50;12.52;;;5.57;;
37791;SDS011;29527;55.766;37.570;2023-03-31T07:59:16;8.95;;;5.90;;
37791;SDS011;29527;55.766;37.570;2023-03-31T08:01:41;12.18;;;6.40;;
37791;SDS011;29527;55.766;37.570;2023-03-31T08:04:08;12.45;;;5.75;;
37791;SDS011;29527;55.766;37.570;2023-03-31T08:06:34;9.38;;;5.72;;
37791;SDS011;29527;55.766;37.570;2023-03-31T08:08:59;8.80;;;5.60;;
37791;SDS011;29527;55.766;37.570;2023-03-31T08:11:25;8.23;;;6.18;;
37791;SDS011;29527;55.766;37.570;2023-03-31T08:13:50;9.10;;;6.18;;
37791;SDS011;29527;55.766;37.570;2023-03-31T08:16:16;8.60;;;5.75;;
37791;SDS011;29527;55.766;37.570;2023-03-31T08:18:42;13.75;;;5.80;;
37791;SDS011;29527;55.766;37.570;2023-03-31T08:21:07;9.50;;;5.75;;
37791;SDS011;29527;55.766;37.570;2023-03-31T08:23:36;9.05;;;5.60;;
37791;SDS011;29527;55.766;37.570;2023-03-31T08:26:06;10.75;;;5.70;;
37791;SDS011;29527;55.766;37.570;2023-03-31T08:28:39;9.65;;;5.88;;
37791;SDS011;29527;55.766;37.570;2023-03-31T08:31:05;10.80;;;5.72;;
37791;SDS011;29527;55.766;37.570;2023-03-31T08:33:32;10.93;;;5.65;;
37791;SDS011;29527;55.766;37.570;2023-03-31T08:36:02;7.00;;;5.25;;
37791;SDS011;29527;55.766;37.570;2023-03-31T08:38:29;11.90;;;5.63;;
37791;SDS011;29527;55.766;37.570;2023-03-31T08:41:01;10.98;;;5.85;;
37791;SDS011;29527;55.766;37.570;2023-03-31T08:43:29;11.90;;;5.72;;
37791;SDS011;29527;55.766;37.570;2023-03-31T08:45:58;11.00;;;5.70;;
37791;SDS011;29527;55.766;37.570;2023-03-31T08:48:27;9.20;;;4.78;;
37791;SDS011;29527;55.766;37.570;2023-03-31T08:50:56;10.85;;;5.32;;
37791;SDS011;29527;55.766;37.570;2023-03-31T08:53:34;5.63;;;4.87;;
37791;SDS011;29527;55.766;37.570;2023-03-31T08:56:06;6.55;;;4.82;;
37791;SDS011;29527;55.766;37.570;2023-03-31T09:09:25;5.93;;;4.72;;
37791;SDS011;29527;55.766;37.570;2023-03-31T09:11:55;11.27;;;5.00;;
37791;SDS011;29527;55.766;37.570;2023-03-31T09:15:09;6.57;;;4.05;;
37791;SDS011;29527;55.766;37.570;2023-03-31T09:19:48;7.00;;;4.60;;
37791;SDS011;29527;55.766;37.570;2023-03-31T09:22:19;6.90;;;3.53;;
37791;SDS011;29527;55.766;37.570;2023-03-31T09:25:06;7.80;;;3.35;;
37791;SDS011;29527;55.766;37.570;2023-03-31T09:27:42;8.68;;;4.22;;
37791;SDS011;29527;55.766;37.570;2023-03-31T09:30:09;9.90;;;4.25;;
37791;SDS011;29527;55.766;37.570;2023-03-31T09:32:42;8.38;;;4.43;;
37791;SDS011;29527;55.766;37.570;2023-03-31T09:35:16;7.80;;;4.20;;
37791;SDS011;29527;55.766;37.570;2023-03-31T09:37:45;12.63;;;4.60;;
37791;SDS011;29527;55.766;37.570;2023-03-31T09:40:15;9.05;;;4.40;;
37791;SDS011;29527;55.766;37.570;2023-03-31T09:42:44;8.38;;;4.40;;
37791;SDS011;29527;55.766;37.570;2023-03-31T09:45:15;10.02;;;4.40;;
37791;SDS011;29527;55.766;37.570;2023-03-31T09:47:43;7.60;;;4.15;;
37791;SDS011;29527;55.766;37.570;2023-03-31T09:50:11;9.05;;;4.43;;
37791;SDS011;29527;55.766;37.570;2023-03-31T09:52:38;6.57;;;3.85;;
37791;SDS011;29527;55.766;37.570;2023-03-31T09:55:14;6.05;;;4.30;;
37791;SDS011;29527;55.766;37.570;2023-03-31T09:57:44;7.28;;;4.88;;
37791;SDS011;29527;55.766;37.570;2023-03-31T10:02:49;7.65;;;4.20;;
37791;SDS011;29527;55.766;37.570;2023-03-31T10:08:22;5.55;;;4.00;;
37791;SDS011;29527;55.766;37.570;2023-03-31T10:11:08;6.78;;;3.90;;
37791;SDS011;29527;55.766;37.570;2023-03-31T10:13:40;12.18;;;4.53;;
37791;SDS011;29527;55.766;37.570;2023-03-31T10:16:09;7.20;;;3.55;;
37791;SDS011;29527;55.766;37.570;2023-03-31T10:18:38;9.00;;;4.13;;
37791;SDS011;29527;55.766;37.570;2023-03-31T10:21:07;11.27;;;3.95;;
37791;SDS011;29527;55.766;37.570;2023-03-31T10:23:47;5.93;;;3.53;;
37791;SDS011;29527;55.766;37.570;2023-03-31T10:26:24;6.35;;;3.95;;
37791;SDS011;29527;55.766;37.570;2023-03-31T10:28:51;7.43;;;3.65;;
37791;SDS011;29527;55.766;37.570;2023-03-31T10:31:19;6.47;;;3.75;;
37791;SDS011;29527;55.766;37.570;2023-03-31T10:33:57;10.07;;;4.00;;
37791;SDS011;29527;55.766;37.570;2023-03-31T10:36:27;7.43;;;4.43;;
37791;SDS011;29527;55.766;37.570;2023-03-31T10:38:54;6.65;;;3.95;;
37791;SDS011;29527;55.766;37.570;2023-03-31T10:41:24;8.82;;;4.35;;
37791;SDS011;29527;55.766;37.570;2023-03-31T10:43:56;12.07;;;4.80;;
37791;SDS011;29527;55.766;37.570;2023-03-31T10:46:45;12.60;;;4.70;;
37791;SDS011;29527;55.766;37.570;2023-03-31T10:49:13;7.78;;;4.35;;
37791;SDS011;29527;55.766;37.570;2023-03-31T10:51:51;10.95;;;4.45;;
37791;SDS011;29527;55.766;37.570;2023-03-31T10:54:20;10.73;;;4.47;;
37791;SDS011;29527;55.766;37.570;2023-03-31T10:56:46;9.13;;;3.75;;
37791;SDS011;29527;55.766;37.570;2023-03-31T11:12:41;10.45;;;4.10;;
37791;SDS011;29527;55.766;37.570;2023-03-31T11:23:49;13.00;;;4.72;;
37791;SDS011;29527;55.766;37.570;2023-03-31T11:35:06;6.40;;;4.97;;
37791;SDS011;29527;55.766;37.570;2023-03-31T11:40:33;8.50;;;4.95;;
37791;SDS011;29527;55.766;37.570;2023-03-31T11:43:18;11.98;;;5.18;;
37791;SDS011;29527;55.766;37.570;2023-03-31T11:51:13;11.38;;;5.28;;
37791;SDS011;29527;55.766;37.570;2023-03-31T11:53:42;9.25;;;4.75;;
37791;SDS011;29527;55.766;37.570;2023-03-31T11:56:11;7.95;;;5.57;;
37791;SDS011;29527;55.766;37.570;2023-03-31T11:58:40;9.52;;;5.68;;
37791;SDS011;29527;55.766;37.570;2023-03-31T12:06:42;6.88;;;4.78;;
37791;SDS011;29527;55.766;37.570;2023-03-31T12:12:17;6.25;;;5.05;;
37791;SDS011;29527;55.766;37.570;2023-03-31T12:14:52;10.02;;;5.45;;
37791;SDS011;29527;55.766;37.570;2023-03-31T12:17:25;11.13;;;5.40;;
37791;SDS011;29527;55.766;37.570;2023-03-31T12:19:58;9.27;;;5.65;;
37791;SDS011;29527;55.766;37.570;2023-03-31T12:22:44;9.77;;;5.68;;
37791;SDS011;29527;55.766;37.570;2023-03-31T12:25:15;11.98;;;5.63;;
37791;SDS011;29527;55.766;37.570;2023-03-31T12:27:50;19.30;;;5.85;;
37791;SDS011;29527;55.766;37.570;2023-03-31T12:30:27;9.70;;;6.22;;
37791;SDS011;29527;55.766;37.570;2023-03-31T12:32:58;13.97;;;5.60;;
37791;SDS011;29527;55.766;37.570;2023-03-31T12:38:40;13.27;;;6.57;;
37791;SDS011;29527;55.766;37.570;2023-03-31T12:41:18;16.88;;;5.70;;
37791;SDS011;29527;55.766;37.570;2023-03-31T12:47:02;13.18;;;5.97;;
37791;SDS011;29527;55.766;37.570;2023-03-31T12:52:56;8.70;;;5.68;;
37791;SDS011;29527;55.766;37.570;2023-03-31T13:06:45;10.85;;;6.75;;
37791;SDS011;29527;55.766;37.570;2023-03-31T13:11:43;13.43;;;6.95;;
37791;SDS011;29527;55.766;37.570;2023-03-31T13:16:53;17.48;;;7.18;;
37791;SDS011;29527;55.766;37.570;2023-03-31T13:19:38;11.70;;;6.47;;
37791;SDS011;29527;55.766;37.570;2023-03-31T13:22:06;13.20;;;5.88;;
37791;SDS011;29527;55.766;37.570;2023-03-31T13:24:32;9.45;;;6.57;;
37791;SDS011;29527;55.766;37.570;2023-03-31T13:29:58;13.80;;;6.88;;
37791;SDS011;29527;55.766;37.570;2023-03-31T13:32:26;13.80;;;7.10;;
37791;SDS011;29527;55.766;37.570;2023-03-31T13:40:31;13.55;;;7.90;;
37791;SDS011;29527;55.766;37.570;2023-03-31T13:51:25;10.60;;;7.55;;
37791;SDS011;29527;55.766;37.570;2023-03-31T13:54:04;12.13;;;7.70;;
37791;SDS011;29527;55.766;37.570;2023-03-31T14:10:36;17.30;;;8.90;;
37791;SDS011;29527;55.766;37.570;2023-03-31T14:13:15;13.70;;;7.78;;
37791;SDS011;29527;55.766;37.570;2023-03-31T14:15:49;12.25;;;8.02;;
37791;SDS011;29527;55.766;37.570;2023-03-31T14:18:25;16.33;;;8.25;;
37791;SDS011;29527;55.766;37.570;2023-03-31T14:23:48;15.38;;;8.38;;
37791;SDS011;29527;55.766;37.570;2023-03-31T14:32:31;15.50;;;8.30;;
37791;SDS011;29527;55.766;37.570;2023-03-31T14:37:15;16.83;;;9.73;;
37791;SDS011;29527;55.766;37.570;2023-03-31T14:39:47;16.02;;;10.07;;
37791;SDS011;29527;55.766;37.570;2023-03-31T14:42:16;20.85;;;9.73;;
37791;SDS011;29527;55.766;37.570;2023-03-31T14:44:44;15.93;;;9.27;;
37791;SDS011;29527;55.766;37.570;2023-03-31T14:47:14;17.55;;;10.18;;
37791;SDS011;29527;55.766;37.570;2023-03-31T14:49:44;17.10;;;8.38;;
37791;SDS011;29527;55.766;37.570;2023-03-31T14:52:14;16.45;;;9.63;;
37791;SDS011;29527;55.766;37.570;2023-03-31T14:54:43;14.07;;;9.10;;
37791;SDS011;29527;55.766;37.570;2023-03-31T14:57:16;14.93;;;9.07;;
37791;SDS011;29527;55.766;37.570;2023-03-31T14:59:45;17.85;;;9.80;;
37791;SDS011;29527;55.766;37.570;2023-03-31T15:02:16;19.27;;;9.98;;
37791;SDS011;29527;55.766;37.570;2023-03-31T15:04:43;17.60;;;10.02;;
37791;SDS011;29527;55.766;37.570;2023-03-31T15:07:13;17.83;;;10.15;;
37791;SDS011;29527;55.766;37.570;2023-03-31T15:09:41;15.65;;;10.35;;
37791;SDS011;29527;55.766;37.570;2023-03-31T15:12:13;16.98;;;9.57;;
37791;SDS011;29527;55.766;37.570;2023-03-31T15:14:49;17.83;;;10.02;;
37791;SDS011;29527;55.766;37.570;2023-03-31T15:17:23;15.88;;;10.10;;
37791;SDS011;29527;55.766;37.570;2023-03-31T15:19:54;17.80;;;9.85;;
37791;SDS011;29527;55.766;37.570;2023-03-31T15:22:22;16.17;;;10.32;;
37791;SDS011;29527;55.766;37.570;2023-03-31T15:24:50;17.10;;;10.05;;
37791;SDS011;29527;55.766;37.570;2023-03-31T15:30:06;18.77;;;10.93;;
37791;SDS011;29527;55.766;37.570;2023-03-31T15:32:38;17.95;;;11.38;;
37791;SDS011;29527;55.766;37.570;2023-03-31T15:35:04;15.60;;;10.43;;
37791;SDS011;29527;55.766;37.570;2023-03-31T15:40:08;15.95;;;10.70;;
37791;SDS011;29527;55.766;37.570;2023-03-31T15:42:42;21.05;;;11.60;;
37791;SDS011;29527;55.766;37.570;2023-03-31T15:47:47;19.15;;;11.73;;
37791;SDS011;29527;55.766;37.570;2023-03-31T15:50:14;18.50;;;11.98;;
37791;SDS011;29527;55.766;37.570;2023-03-31T15:52:47;18.15;;;11.90;;
37791;SDS011;29527;55.766;37.570;2023-03-31T15:55:27;21.90;;;13.88;;
37791;SDS011;29527;55.766;37.570;2023-03-31T15:57:54;22.23;;;14.70;;
37791;SDS011;29527;55.766;37.570;2023-03-31T16:03:13;21.85;;;14.90;;
37791;SDS011;29527;55.766;37.570;2023-03-31T16:05:48;22.77;;;13.65;;
37791;SDS011;29527;55.766;37.570;2023-03-31T16:08:23;22.27;;;13.57;;
37791;SDS011;29527;55.766;37.570;2023-03-31T16:11:00;21.17;;;14.10;;
37791;SDS011;29527;55.766;37.570;2023-03-31T16:13:28;22.25;;;13.73;;
37791;SDS011;29527;55.766;37.570;2023-03-31T16:15:56;21.83;;;14.00;;
37791;SDS011;29527;55.766;37.570;2023-03-31T16:18:24;19.92;;;13.35;;
37791;SDS011;29527;55.766;37.570;2023-03-31T16:20:57;24.98;;;14.48;;
37791;SDS011;29527;55.766;37.570;2023-03-31T16:23:29;24.58;;;14.20;;
37791;SDS011;29527;55.766;37.570;2023-03-31T16:25:58;23.73;;;14.02;;
37791;SDS011;29527;55.766;37.570;2023-03-31T16:28:33;19.65;;;12.82;;
37791;SDS011;29527;55.766;37.570;2023-03-31T16:31:00;19.73;;;13.10;;
37791;SDS011;29527;55.766;37.570;2023-03-31T16:33:28;20.95;;;12.50;;
37791;SDS011;29527;55.766;37.570;2023-03-31T16:35:55;22.17;;;12.63;;
37791;SDS011;29527;55.766;37.570;2023-03-31T16:38:23;19.25;;;12.15;;
37791;SDS011;29527;55.766;37.570;2023-03-31T16:40:53;19.80;;;11.32;;
37791;SDS011;29527;55.766;37.570;2023-03-31T16:43:24;17.23;;;9.45;;
37791;SDS011;29527;55.766;37.570;2023-03-31T16:45:55;16.58;;;11.10;;
37791;SDS011;29527;55.766;37.570;2023-03-31T16:48:23;18.70;;;10.88;;
37791;SDS011;29527;55.766;37.570;2023-03-31T16:50:51;17.90;;;10.95;;
37791;SDS011;29527;55.766;37.570;2023-03-31T16:53:19;16.00;;;10.45;;
37791;SDS011;29527;55.766;37.570;2023-03-31T16:55:47;19.20;;;12.35;;
37791;SDS011;29527;55.766;37.570;2023-03-31T16:58:13;17.75;;;11.32;;
37791;SDS011;29527;55.766;37.570;2023-03-31T17:00:39;20.13;;;12.13;;
37791;SDS011;29527;55.766;37.570;2023-03-31T17:03:05;19.02;;;12.32;;
37791;SDS011;29527;55.766;37.570;2023-03-31T17:05:36;20.35;;;12.27;;
37791;SDS011;29527;55.766;37.570;2023-03-31T17:08:10;20.42;;;11.73;;
37791;SDS011;29527;55.766;37.570;2023-03-31T17:10:37;19.70;;;12.15;;
37791;SDS011;29527;55.766;37.570;2023-03-31T17:13:03;20.23;;;12.32;;
37791;SDS011;29527;55.766;37.570;2023-03-31T17:15:29;19.15;;;11.95;;
37791;SDS011;29527;55.766;37.570;2023-03-31T17:17:55;17.80;;;11.80;;
37791;SDS011;29527;55.766;37.570;2023-03-31T17:20:23;20.48;;;11.45;;
37791;SDS011;29527;55.766;37.570;2023-03-31T17:22:51;16.58;;;10.40;;
37791;SDS011;29527;55.766;37.570;2023-03-31T17:25:18;15.45;;;9.88;;
37791;SDS011;29527;55.766;37.570;2023-03-31T17:27:43;15.77;;;10.55;;
37791;SDS011;29527;55.766;37.570;2023-03-31T17:30:09;14.73;;;9.63;;
37791;SDS011;29527;55.766;37.570;2023-03-31T17:32:35;16.17;;;10.57;;
37791;SDS011;29527;55.766;37.570;2023-03-31T17:35:01;15.85;;;10.05;;
37791;SDS011;29527;55.766;37.570;2023-03-31T17:37:28;15.95;;;10.40;;
37791;SDS011;29527;55.766;37.570;2023-03-31T17:39:54;17.30;;;10.60;;